Christiansted, VI

9:41 AM AST on May 23, 2015 (GMT -0400)
Work & Rest Estate | | Change Station
CLOSE
Current Station
Personal Weather Station
Location: Christiansted, ST. CROIX
Elevation: 289 ft
Nearby Weather Stations

Elev 289 ft 17.72 °N, 64.72 °W | Updated 8 seconds ago

Scattered Clouds
Scattered Clouds
85.3 °F
Feels Like 94 °F
N
4.5
Wind Variable Wind from East
Gusts 7.4 mph

Today
High -- | Low -- °F
--% Chance of Precip.
Yesterday
High -- | Low -- °F
Precip. -- in
5:44 AM 6:47 PM
Waxing Crescent, 30% visible
Pressure 30.14 in
Visibility 10.0 miles
Clouds Scattered Clouds 2300 ft
Heat Index 94 °F
Dew Point 75 °F
Humidity 71%
Rainfall 0.00 in
Snow Depth Not available.
UV 4.0 out of 12
Pollen Not available.
Air Quality Not available.
Flu Activity No Activity
METAR TISX 231253Z 11014G23KT 10SM SCT023 30/23 A3014 RMK AO2 SLP206 T03000228

More Conditions Fewer Conditions

Pressure 30.14 in
Visibility 10.0 miles
Clouds Scattered Clouds 2300 ft
Heat Index 94 °F
Dew Point 75 °F
Humidity 71%
Rainfall 0.00 in
Snow Depth Not available.
UV 4.0 out of 12
Pollen Not available.
Air Quality Not available.
Flu Activity No Activity
METAR TISX 231253Z 11014G23KT 10SM SCT023 30/23 A3014 RMK AO2 SLP206 T03000228

More Conditions Fewer Conditions

10-Day Weather Forecast

Almanac

Astronomy

May. 23, 2015 Rise Set
Actual Time
Civil Twilight
Nautical Twilight
Astronomical Twilight
Moon
Length of Visible Light
Length of Day
Tomorrow will be .
, % of the Moon is Illuminated

Today's Extremes

State Highs State Lows

Community

WunderPhotos

Upload Photos

1,823,467 photos uploaded!

WunderBlogs® & News

Nearby

Air Quality

  Air Quality AQ Index Pollutant
Not available.

Snow Depth

Station Depth Elevation

Earthquake Activity

City Distance Mag. Time & Date
Minimum magnitude displayed is 2.5.

Coastal Water Temperatures

Place Temperature

Stations

Nearby Weather Stations

Station Location Temp. Windchill Dew Point Humidity Wind Precip. Elev Updated Type